Latest Weather Observations for Mount Buller

IDV60801

Issued at 9:31 am EST Saturday 30 April 2016 (issued every 30 minutes, with the page automatically refreshed every 10 minutes)

About weather observations | Map of weather stations | Latest weather observations for VIC | Other Formats
Station Details ID: 083024 Name: MOUNT BULLER Lat: -37.15 Lon: 146.44 Height: 1707.0 m
Data from the previous 72 hours. | See also: Recent months at Mount Buller
Date/Time
EST
Temp
°C
App
Temp
°C
Dew
Point
Rel
Hum
%
Delta-T
°C
Wind Press
QNH
hPa
Press
MSL
hPa
Rain
since 9 am
mm
Dir
 
Spd
km/h
Gust
km/h
Spd
kts
Gust
kts
30/09:30am 8.3 2.6 8.2 99 0.1 N 28 39 15 21 - - 0.0
30/09:00am 7.9 2.5 7.8 99 0.1 N 26 39 14 21 - - 16.6
30/08:30am 8.2 3.2 8.1 99 0.1 N 24 33 13 18 - - 16.6
30/08:00am 8.1 3.1 8.0 99 0.1 N 24 32 13 17 - - 16.6
30/07:30am 8.1 2.7 8.0 99 0.1 N 26 35 14 19 - - 16.6
30/07:00am 8.0 3.0 7.9 99 0.1 N 24 32 13 17 - - 16.6
30/06:30am 8.0 2.2 7.9 99 0.1 N 28 37 15 20 - - 16.6
30/06:00am 8.0 1.8 7.9 99 0.1 N 30 46 16 25 - - 16.6
30/05:30am 8.0 1.2 7.9 99 0.1 N 33 43 18 23 - - 16.6
30/05:02am 8.0 2.2 7.9 99 0.1 N 28 46 15 25 - - 16.6
30/05:00am 8.0 1.8 7.9 99 0.1 N 30 46 16 25 - - 16.6
30/04:30am 8.1 1.9 8.0 99 0.1 N 30 41 16 22 - - 16.6
30/04:00am 8.2 1.5 8.1 99 0.1 NNW 33 46 18 25 - - 16.6
30/03:30am 8.0 0.5 7.9 99 0.1 NNW 37 50 20 27 - - 16.6
30/03:06am 7.9 0.7 7.8 99 0.1 NNW 35 54 19 29 - - 16.6
30/03:00am 8.0 0.5 7.9 99 0.1 NNW 37 52 20 28 - - 16.6
30/02:30am 8.0 1.2 7.9 99 0.1 NNW 33 44 18 24 - - 16.6
30/02:00am 8.0 0.1 7.9 99 0.1 NNW 39 50 21 27 - - 16.6
30/01:30am 8.4 0.6 8.3 99 0.1 NNW 39 52 21 28 - - 16.6
30/01:00am 8.4 0.6 8.3 99 0.1 NNW 39 48 21 26 - - 16.6
30/12:30am 8.3 0.5 8.2 99 0.1 NNW 39 52 21 28 - - 16.6
30/12:06am 8.5 2.1 8.4 99 0.1 NNW 32 50 17 27 - - 16.6
30/12:00am 8.4 1.9 8.3 99 0.1 NNW 32 43 17 23 - - 16.6
 
Date/Time
EST
Temp
°C
App
Temp
°C
Dew
Point
Rel
Hum
%
Delta-T
°C
Wind Press
QNH
hPa
Press
MSL
hPa
Rain
since 9 am
mm
Dir
 
Spd
km/h
Gust
km/h
Spd
kts
Gust
kts
29/11:30pm 8.4 1.7 8.3 99 0.1 NNW 33 46 18 25 - - 16.6
29/11:00pm 8.4 0.6 8.3 99 0.1 NNW 39 57 21 31 - - 16.6
29/10:59pm 8.4 1.0 8.3 99 0.1 NNW 37 57 20 31 - - 16.6
29/10:30pm 8.5 0.0 8.4 99 0.1 NNW 43 54 23 29 - - 16.6
29/10:00pm 8.8 1.5 8.7 99 0.1 NNW 37 56 20 30 - - 16.6
29/09:49pm 8.6 0.5 8.5 99 0.1 NNW 41 59 22 32 - - 16.4
29/09:30pm 8.6 1.6 8.5 99 0.1 NNW 35 48 19 26 - - 16.2
29/09:10pm 8.6 1.6 8.5 99 0.1 NNW 35 56 19 30 - - 16.0
29/09:00pm 8.6 2.2 8.5 99 0.1 NNW 32 44 17 24 - - 15.6
29/08:30pm 8.5 1.5 8.4 99 0.1 NNW 35 46 19 25 - - 15.4
29/08:00pm 8.5 1.1 8.4 99 0.1 NNW 37 54 20 29 - - 15.4
29/07:40pm 8.3 1.2 8.2 99 0.1 NNW 35 54 19 29 - - 15.4
29/07:30pm 8.4 1.9 8.3 99 0.1 N 32 46 17 25 - - 15.0
29/07:00pm 8.3 0.9 8.2 99 0.1 NNW 37 52 20 28 - - 13.8
29/06:30pm 8.3 0.5 8.2 99 0.1 NNW 39 54 21 29 - - 13.8
29/06:05pm 8.2 0.4 8.1 99 0.1 N 39 57 21 31 - - 13.4
29/06:00pm 8.2 0.0 8.1 99 0.1 N 41 57 22 31 - - 13.2
29/05:41pm 8.2 0.4 8.1 99 0.1 N 39 57 21 31 - - 12.6
29/05:30pm 8.2 -0.4 8.1 99 0.1 N 43 59 23 32 - - 12.4
29/05:00pm 8.0 -0.8 7.9 99 0.1 N 44 63 24 34 - - 12.2
29/04:31pm 7.8 -1.9 7.7 99 0.1 N 48 67 26 36 - - 12.0
29/04:30pm 7.8 -2.2 7.7 99 0.1 N 50 67 27 36 - - 12.0
29/04:00pm 7.7 -3.1 7.6 99 0.1 N 54 76 29 41 - - 11.8
29/03:30pm 7.5 -4.7 7.4 99 0.1 N 61 95 33 51 - - 11.4
29/03:00pm 8.0 -4.1 7.9 99 0.1 N 61 87 33 47 - - 10.4
29/02:30pm 8.1 -3.0 8.0 99 0.1 NNW 56 76 30 41 - - 8.2
29/02:19pm 8.1 -3.0 8.0 99 0.1 NNW 56 74 30 40 - - 7.4
29/02:15pm 8.0 -2.0 7.9 99 0.1 NNW 50 70 27 38 - - 7.2
29/02:09pm 7.9 -2.1 7.8 99 0.1 N 50 78 27 42 - - 6.8
29/02:08pm 7.8 -2.2 7.7 99 0.1 N 50 78 27 42 - - 6.6
29/02:03pm 7.7 -3.7 7.6 99 0.1 N 57 78 31 42 - - 6.4
29/02:00pm 7.3 -4.0 7.2 99 0.1 N 56 72 30 39 - - 6.0
29/01:30pm 8.2 -1.7 8.1 99 0.1 N 50 69 27 37 - - 3.6
29/01:00pm 8.1 -3.0 8.0 99 0.1 N 56 74 30 40 - - 3.2
29/12:39pm 8.0 -1.2 7.9 99 0.1 N 46 69 25 37 - - 3.0
29/12:30pm 8.0 -0.8 7.9 99 0.1 N 44 59 24 32 - - 3.0
29/12:05pm 8.3 0.1 8.0 98 0.2 NNW 41 59 22 32 - - 2.8
29/12:00pm 8.3 0.8 8.0 98 0.2 N 37 54 20 29 - - 2.2
29/11:30am 9.8 -0.6 7.7 87 1.1 N 52 76 28 41 - - 0.0
29/11:00am 9.8 0.6 7.9 88 1.0 N 46 72 25 39 - - 0.0
29/10:36am 9.7 0.5 7.8 88 1.0 N 46 70 25 38 - - 0.0
29/10:30am 9.5 0.8 7.6 88 1.0 N 43 57 23 31 - - 0.0
29/10:00am 10.0 0.4 7.8 86 1.2 N 48 69 26 37 - - 0.0
29/09:30am 10.1 1.9 8.4 89 0.9 N 41 67 22 36 - - 0.0
29/09:00am 9.2 2.1 8.1 93 0.6 N 35 54 19 29 - - 0.0
29/08:51am 9.3 2.7 8.4 94 0.5 N 33 54 18 29 - - 0.0
29/08:30am 8.9 1.4 8.1 95 0.4 N 37 50 20 27 - - 0.0
29/08:00am 9.0 0.7 7.9 93 0.6 N 41 63 22 34 - - 0.0
29/07:30am 9.3 0.3 7.3 87 1.0 N 44 65 24 35 - - 0.0
29/07:00am 9.1 0.6 6.9 86 1.1 NNE 41 59 22 32 - - 0.0
29/06:30am 9.3 0.6 6.0 80 1.7 NNE 41 63 22 34 - - 0.0
29/06:00am 9.2 1.2 5.9 80 1.7 NNE 37 57 20 31 - - 0.0
29/05:32am 9.5 0.7 5.5 76 2.0 N 41 59 22 32 - - 0.0
29/05:30am 9.5 0.3 5.5 76 2.0 N 43 59 23 32 - - 0.0
29/05:18am 9.7 1.3 5.5 75 2.1 N 39 57 21 31 - - 0.0
29/05:00am 9.6 0.7 5.2 74 2.2 N 41 57 22 31 - - 0.0
29/04:54am 9.4 0.9 5.2 75 2.1 N 39 57 21 31 - - 0.0
29/04:30am 9.5 0.6 5.1 74 2.2 N 41 56 22 30 - - 0.0
29/04:00am 9.6 1.5 5.2 74 2.2 N 37 52 20 28 - - 0.0
29/03:30am 9.8 0.5 5.0 72 2.4 N 43 70 23 38 - - 0.0
29/03:04am 9.8 0.9 5.2 73 2.3 N 41 59 22 32 - - 0.0
29/03:00am 9.7 1.2 5.1 73 2.3 N 39 54 21 29 - - 0.0
29/02:34am 9.7 0.2 5.1 73 2.3 N 44 67 24 36 - - 0.0
29/02:30am 9.8 0.4 5.2 73 2.3 N 44 59 24 32 - - 0.0
29/02:00am 9.7 0.5 5.3 74 2.2 N 43 61 23 33 - - 0.0
29/01:42am 9.7 1.6 5.3 74 2.2 N 37 61 20 33 - - 0.0
29/01:30am 9.7 0.4 5.1 73 2.3 N 43 57 23 31 - - 0.0
29/01:01am 9.7 0.8 5.3 74 2.2 N 41 59 22 32 - - 0.0
29/01:00am 9.6 1.1 5.2 74 2.2 N 39 56 21 30 - - 0.0
29/12:30am 9.9 0.7 5.5 74 2.2 N 43 61 23 33 - - 0.0
29/12:03am 10.0 1.6 5.6 74 2.2 N 39 59 21 32 - - 0.0
29/12:00am 10.0 2.0 5.6 74 2.2 N 37 54 20 29 - - 0.0
 
Date/Time
EST
Temp
°C
App
Temp
°C
Dew
Point
Rel
Hum
%
Delta-T
°C
Wind Press
QNH
hPa
Press
MSL
hPa
Rain
since 9 am
mm
Dir
 
Spd
km/h
Gust
km/h
Spd
kts
Gust
kts
28/11:30pm 10.0 2.0 5.6 74 2.2 N 37 57 20 31 - - 0.0
28/11:08pm 10.1 1.7 5.7 74 2.2 N 39 61 21 33 - - 0.0
28/11:00pm 10.1 1.7 5.7 74 2.2 N 39 54 21 29 - - 0.0
28/10:37pm 10.1 1.7 5.7 74 2.2 NNE 39 57 21 31 - - 0.0
28/10:30pm 10.3 1.6 5.9 74 2.2 NNE 41 56 22 30 - - 0.0
28/10:14pm 10.2 1.9 6.0 75 2.1 NNE 39 57 21 31 - - 0.0
28/10:00pm 10.3 1.2 5.9 74 2.2 NNE 43 59 23 32 - - 0.0
28/09:30pm 10.3 1.6 6.1 75 2.2 N 41 59 22 32 - - 0.0
28/09:09pm 10.5 2.6 6.3 75 2.2 N 37 57 20 31 - - 0.0
28/09:00pm 10.4 2.9 6.2 75 2.2 N 35 46 19 25 - - 0.0
28/08:30pm 10.2 2.7 6.2 76 2.1 N 35 50 19 27 - - 0.0
28/08:00pm 10.1 3.6 6.3 77 2.0 N 30 39 16 21 - - 0.0
28/07:30pm 9.9 3.8 6.4 79 1.8 N 28 33 15 18 - - 0.0
28/07:00pm 10.1 4.0 6.4 78 1.9 N 28 37 15 20 - - 0.0
28/06:30pm 10.1 4.8 6.6 79 1.8 N 24 32 13 17 - - 0.0
28/06:00pm 10.2 4.8 6.5 78 1.9 N 24 32 13 17 - - 0.0
28/05:30pm 9.9 4.5 6.4 79 1.8 N 24 30 13 16 - - 0.0
28/05:00pm 10.2 4.1 6.4 77 2.0 N 28 39 15 21 - - 0.0
28/04:30pm 10.6 4.5 6.6 76 2.1 N 28 37 15 20 - - 0.0
28/04:00pm 10.6 4.5 6.6 76 2.1 N 28 35 15 19 - - 0.0
28/03:30pm 10.6 5.3 6.7 77 2.0 N 24 32 13 17 - - 0.0
28/03:00pm 10.9 5.2 6.6 75 2.2 N 26 33 14 18 - - 0.0
28/02:32pm 10.8 3.7 6.4 74 2.3 N 33 52 18 28 - - 0.0
28/02:30pm 10.9 3.8 6.5 74 2.3 N 33 50 18 27 - - 0.0
28/02:00pm 11.5 4.7 7.0 74 2.4 N 32 46 17 25 - - 0.0
28/01:30pm 12.3 5.6 7.2 71 2.7 NNW 32 48 17 26 - - 0.0
28/01:00pm 11.4 4.6 7.1 75 2.3 NNW 32 46 17 25 - - 0.0
28/12:42pm 11.8 4.5 7.3 74 2.4 NNW 35 54 19 29 - - 0.0
28/12:30pm 12.3 4.3 7.6 73 2.5 NNW 39 52 21 28 - - 0.0
28/12:08pm 10.7 3.4 7.0 78 1.9 NNW 35 54 19 29 - - 0.0
28/12:00pm 10.3 2.5 6.8 79 1.8 NNW 37 54 20 29 - - 0.0
28/11:32am 10.3 3.2 6.6 78 1.9 NNW 33 54 18 29 - - 0.0
28/11:30am 10.2 3.2 6.7 79 1.8 NNW 33 46 18 25 - - 0.0
28/11:00am 10.9 3.6 7.2 78 1.9 NNW 35 56 19 30 - - 0.0
28/10:30am 10.1 2.7 6.6 79 1.8 NNW 35 56 19 30 - - 0.0
28/10:03am 9.9 1.7 6.4 79 1.8 NNW 39 57 21 31 - - 0.0
28/10:00am 10.0 2.2 6.5 79 1.8 NNW 37 54 20 29 - - 0.0
28/09:40am 9.4 1.9 6.5 82 1.5 NNW 35 54 19 29 - - 0.0
28/09:30am 9.5 1.6 6.4 81 1.6 NNW 37 50 20 27 - - 0.0
28/09:00am 9.7 2.3 6.6 81 1.6 NNW 35 54 19 29 - - 0.0
28/08:30am 9.7 1.8 6.4 80 1.7 NNW 37 59 20 32 - - 0.0
28/08:02am 9.4 1.5 6.3 81 1.6 NNW 37 56 20 30 - - 0.0
28/08:00am 9.4 1.1 6.1 80 1.7 NNW 39 56 21 30 - - 0.0
28/07:38am 9.3 1.4 6.2 81 1.6 N 37 61 20 33 - - 0.0
28/07:30am 9.0 1.5 6.1 82 1.5 N 35 46 19 25 - - 0.0
28/07:00am 9.0 1.5 6.1 82 1.5 N 35 54 19 29 - - 0.0
28/06:36am 9.5 1.6 6.2 80 1.7 N 37 56 20 30 - - 0.0
28/06:30am 9.3 1.4 6.2 81 1.6 N 37 54 20 29 - - 0.0
28/06:00am 9.1 0.8 6.2 82 1.5 N 39 61 21 33 - - 0.0
28/05:57am 9.2 0.2 6.3 82 1.5 N 43 61 23 33 - - 0.0
28/05:30am 9.0 -0.1 6.1 82 1.5 N 43 54 23 29 - - 0.0
28/05:00am 9.1 -0.2 6.0 81 1.6 N 44 56 24 30 - - 0.0
28/04:36am 9.1 -0.2 6.0 81 1.6 N 44 63 24 34 - - 0.0
28/04:30am 9.1 -0.2 5.8 80 1.7 N 44 59 24 32 - - 0.0
28/04:15am 9.1 -0.2 5.8 80 1.7 N 44 63 24 34 - - 0.0
28/04:00am 9.0 -0.1 5.7 80 1.7 N 43 57 23 31 - - 0.0
28/03:30am 9.3 -0.4 5.7 78 1.8 N 46 61 25 33 - - 0.0
28/03:21am 9.2 0.1 5.8 79 1.7 N 43 61 23 33 - - 0.0
28/03:00am 9.1 -0.2 5.7 79 1.7 N 44 57 24 31 - - 0.0
28/02:43am 9.2 -0.1 5.8 79 1.7 N 44 63 24 34 - - 0.0
28/02:30am 9.3 0.0 5.9 79 1.7 N 44 61 24 33 - - 0.0
28/02:00am 9.5 0.2 5.9 78 1.8 N 44 57 24 31 - - 0.0
28/01:30am 9.3 -0.8 5.7 78 1.8 N 48 63 26 34 - - 0.0
28/01:00am 9.4 -1.1 5.6 77 1.9 N 50 65 27 35 - - 0.0
28/12:36am 9.4 -1.1 5.6 77 1.9 N 50 69 27 37 - - 0.0
28/12:30am 9.4 -1.4 5.8 78 1.8 N 52 69 28 37 - - 0.0
28/12:21am 9.4 -0.7 5.6 77 1.9 N 48 67 26 36 - - 0.0
28/12:00am 9.3 -1.2 5.7 78 1.8 N 50 61 27 33 - - 0.0
 
Date/Time
EST
Temp
°C
App
Temp
°C
Dew
Point
Rel
Hum
%
Delta-T
°C
Wind Press
QNH
hPa
Press
MSL
hPa
Rain
since 9 am
mm
Dir
 
Spd
km/h
Gust
km/h
Spd
kts
Gust
kts
27/11:30pm 9.5 -0.6 5.7 77 1.9 N 48 63 26 34 - - 0.0
27/11:00pm 9.1 -1.1 5.1 76 2.0 N 48 65 26 35 - - 0.0
27/10:30pm 9.0 -0.3 5.2 77 1.9 N 43 56 23 30 - - 0.0
27/10:00pm 9.2 -1.4 5.0 75 2.1 N 50 69 27 37 - - 0.0
27/09:58pm 9.2 -1.4 5.0 75 2.1 N 50 69 27 37 - - 0.0
27/09:30pm 9.0 -1.3 4.8 75 2.1 N 48 65 26 35 - - 0.0
27/09:00pm 9.3 -0.2 4.7 73 2.3 N 44 65 24 35 - - 0.0
27/08:30pm 9.2 -0.8 4.4 72 2.4 N 46 70 25 38 - - 0.0
27/08:00pm 9.3 -0.3 4.3 71 2.4 N 44 65 24 35 - - 0.0
27/07:56pm 9.2 -0.4 4.6 73 2.3 N 44 65 24 35 - - 0.0
27/07:30pm 9.1 -0.8 4.7 74 2.2 N 46 63 25 34 - - 0.0
27/07:19pm 9.1 -0.4 4.7 74 2.2 N 44 67 24 36 - - 0.0
27/07:00pm 8.8 -0.8 4.6 75 2.1 N 44 59 24 32 - - 0.0
27/06:35pm 8.7 0.1 4.5 75 2.1 N 39 57 21 31 - - 0.0
27/06:30pm 8.9 -0.5 4.5 74 2.2 N 43 57 23 31 - - 0.0
27/06:01pm 8.7 0.1 4.5 75 2.1 N 39 57 21 31 - - 0.0
27/06:00pm 8.9 -0.1 4.7 75 2.1 N 41 57 22 31 - - 0.0
27/05:45pm 8.7 0.8 4.5 75 2.1 N 35 54 19 29 - - 0.0
27/05:30pm 8.7 0.6 5.1 78 1.8 N 37 52 20 28 - - 0.0
27/05:00pm 8.6 1.4 5.2 79 1.7 N 32 44 17 24 - - 0.0
27/04:30pm 9.0 2.2 5.2 77 1.9 N 30 48 16 26 - - 0.0
27/04:27pm 9.0 2.2 5.2 77 1.9 N 30 48 16 26 - - 0.0
27/04:00pm 9.5 1.7 5.1 74 2.2 N 35 50 19 27 - - 0.0
27/03:43pm 9.8 2.7 5.4 74 2.2 N 32 50 17 27 - - 0.0
27/03:30pm 10.5 3.8 5.5 71 2.5 N 30 43 16 23 - - 0.0
27/03:00pm 10.6 3.0 5.6 71 2.5 N 35 54 19 29 - - 0.0
27/02:54pm 10.9 3.3 5.9 71 2.6 N 35 54 19 29 - - 0.0
27/02:30pm 9.8 1.0 5.6 75 2.1 N 41 56 22 30 - - 0.0
27/02:00pm 9.7 2.2 6.1 78 1.8 N 35 52 19 28 - - 0.0
27/01:30pm 9.8 2.8 6.2 78 1.8 N 32 43 17 23 - - 0.0
27/01:00pm 10.6 2.8 6.6 76 2.1 N 37 52 20 28 - - 0.0
27/12:30pm 8.9 0.6 6.2 83 1.4 N 39 50 21 27 - - 0.0
27/12:00pm 9.3 0.4 6.9 85 1.2 N 43 61 23 33 - - 0.0
27/11:30am 8.5 -0.5 6.6 88 1.0 N 43 61 23 33 - - 0.0
27/11:00am 8.0 -1.3 6.1 88 1.0 N 44 63 24 34 - - 0.0
27/10:59am 8.2 -1.0 6.3 88 1.0 N 44 63 24 34 - - 0.0
27/10:30am 8.9 -0.1 6.3 84 1.3 N 43 54 23 29 - - 0.0
27/10:00am 7.9 -0.7 6.4 90 0.8 N 41 52 22 28 - - 0.0

Other Formats:

Comma delimited format used in spreadsheet applications
http://www.bom.gov.au/fwo/IDV60801/IDV60801.94894.axf

JavaScript Object Notation format (JSON) in row-major order
http://www.bom.gov.au/fwo/IDV60801/IDV60801.94894.json